sensor_id;sensor_type;location;lat;lon;timestamp;temperature;humidity
22299;DHT22;11317;51.072;17.036;2022-10-19T00:01:04;13.30;99.90
22299;DHT22;11317;51.072;17.036;2022-10-19T00:03:31;13.60;99.90
22299;DHT22;11317;51.072;17.036;2022-10-19T00:05:57;13.30;99.90
22299;DHT22;11317;51.072;17.036;2022-10-19T00:08:23;13.80;99.90
22299;DHT22;11317;51.072;17.036;2022-10-19T00:13:14;12.60;99.90
22299;DHT22;11317;51.072;17.036;2022-10-19T00:18:07;12.90;99.90
22299;DHT22;11317;51.072;17.036;2022-10-19T00:20:34;13.40;99.90
22299;DHT22;11317;51.072;17.036;2022-10-19T00:30:18;12.50;99.90
22299;DHT22;11317;51.072;17.036;2022-10-19T00:32:43;12.80;99.90
22299;DHT22;11317;51.072;17.036;2022-10-19T00:42:27;12.60;99.90
22299;DHT22;11317;51.072;17.036;2022-10-19T00:44:58;13.20;99.90
22299;DHT22;11317;51.072;17.036;2022-10-19T00:49:50;12.00;99.90
22299;DHT22;11317;51.072;17.036;2022-10-19T00:52:20;13.10;99.90
22299;DHT22;11317;51.072;17.036;2022-10-19T00:54:46;12.10;99.90
22299;DHT22;11317;51.072;17.036;2022-10-19T00:57:12;12.00;99.90
22299;DHT22;11317;51.072;17.036;2022-10-19T00:59:39;12.10;99.90
22299;DHT22;11317;51.072;17.036;2022-10-19T01:02:07;12.00;99.90
22299;DHT22;11317;51.072;17.036;2022-10-19T01:04:35;12.00;99.90
22299;DHT22;11317;51.072;17.036;2022-10-19T01:07:03;11.80;99.90
22299;DHT22;11317;51.072;17.036;2022-10-19T01:15:02;11.80;99.90
22299;DHT22;11317;51.072;17.036;2022-10-19T01:26:07;11.70;99.90
22299;DHT22;11317;51.072;17.036;2022-10-19T01:28:50;11.70;99.90
22299;DHT22;11317;51.072;17.036;2022-10-19T01:31:38;11.40;99.90
22299;DHT22;11317;51.072;17.036;2022-10-19T01:34:13;11.80;99.90
22299;DHT22;11317;51.072;17.036;2022-10-19T01:39:12;11.80;99.90
22299;DHT22;11317;51.072;17.036;2022-10-19T01:44:36;12.00;99.90
22299;DHT22;11317;51.072;17.036;2022-10-19T01:47:08;11.90;99.90
22299;DHT22;11317;51.072;17.036;2022-10-19T01:49:40;11.70;99.90
22299;DHT22;11317;51.072;17.036;2022-10-19T01:52:09;11.90;99.90
22299;DHT22;11317;51.072;17.036;2022-10-19T01:54:39;11.90;99.90
22299;DHT22;11317;51.072;17.036;2022-10-19T01:57:08;11.80;99.90
22299;DHT22;11317;51.072;17.036;2022-10-19T01:59:37;11.80;99.90
22299;DHT22;11317;51.072;17.036;2022-10-19T02:02:05;11.90;99.90
22299;DHT22;11317;51.072;17.036;2022-10-19T02:04:32;12.00;99.90
22299;DHT22;11317;51.072;17.036;2022-10-19T02:07:01;11.80;99.90
22299;DHT22;11317;51.072;17.036;2022-10-19T02:09:27;12.20;99.90
22299;DHT22;11317;51.072;17.036;2022-10-19T02:11:57;12.00;99.90
22299;DHT22;11317;51.072;17.036;2022-10-19T02:14:28;12.40;99.90
22299;DHT22;11317;51.072;17.036;2022-10-19T02:17:17;12.30;99.90
22299;DHT22;11317;51.072;17.036;2022-10-19T02:22:11;12.30;99.90
22299;DHT22;11317;51.072;17.036;2022-10-19T02:27:04;12.30;99.90
22299;DHT22;11317;51.072;17.036;2022-10-19T02:29:32;12.50;99.90
22299;DHT22;11317;51.072;17.036;2022-10-19T02:31:58;12.10;99.90
22299;DHT22;11317;51.072;17.036;2022-10-19T02:34:24;12.20;99.90
22299;DHT22;11317;51.072;17.036;2022-10-19T02:41:53;12.80;99.90
22299;DHT22;11317;51.072;17.036;2022-10-19T02:44:28;12.60;99.90
22299;DHT22;11317;51.072;17.036;2022-10-19T02:49:53;12.50;99.90
22299;DHT22;11317;51.072;17.036;2022-10-19T02:57:18;12.60;99.90
22299;DHT22;11317;51.072;17.036;2022-10-19T02:59:45;12.60;99.90
22299;DHT22;11317;51.072;17.036;2022-10-19T03:02:12;12.20;99.90
22299;DHT22;11317;51.072;17.036;2022-10-19T03:04:38;12.70;99.90
22299;DHT22;11317;51.072;17.036;2022-10-19T03:14:21;12.60;99.90
22299;DHT22;11317;51.072;17.036;2022-10-19T03:21:39;13.00;99.90
22299;DHT22;11317;51.072;17.036;2022-10-19T03:24:04;12.40;99.90
22299;DHT22;11317;51.072;17.036;2022-10-19T03:26:30;12.00;99.90
22299;DHT22;11317;51.072;17.036;2022-10-19T03:28:56;12.30;99.90
22299;DHT22;11317;51.072;17.036;2022-10-19T03:31:21;12.30;99.90
22299;DHT22;11317;51.072;17.036;2022-10-19T03:33:47;12.20;99.90
22299;DHT22;11317;51.072;17.036;2022-10-19T03:36:28;12.30;99.90
22299;DHT22;11317;51.072;17.036;2022-10-19T03:38:59;12.30;99.90
22299;DHT22;11317;51.072;17.036;2022-10-19T03:41:27;12.10;99.90
22299;DHT22;11317;51.072;17.036;2022-10-19T03:46:19;11.50;99.90
22299;DHT22;11317;51.072;17.036;2022-10-19T03:48:45;11.80;99.90
22299;DHT22;11317;51.072;17.036;2022-10-19T03:51:14;12.00;99.90
22299;DHT22;11317;51.072;17.036;2022-10-19T03:56:17;12.00;99.90
22299;DHT22;11317;51.072;17.036;2022-10-19T03:58:44;12.30;99.90
22299;DHT22;11317;51.072;17.036;2022-10-19T04:03:40;12.00;99.90
22299;DHT22;11317;51.072;17.036;2022-10-19T04:06:09;11.80;99.90
22299;DHT22;11317;51.072;17.036;2022-10-19T04:11:07;11.70;99.90
22299;DHT22;11317;51.072;17.036;2022-10-19T04:13:33;11.40;99.90
22299;DHT22;11317;51.072;17.036;2022-10-19T04:15:59;11.50;99.90
22299;DHT22;11317;51.072;17.036;2022-10-19T04:18:25;11.50;99.90
22299;DHT22;11317;51.072;17.036;2022-10-19T04:20:59;11.90;99.90
22299;DHT22;11317;51.072;17.036;2022-10-19T04:23:31;11.90;99.90
22299;DHT22;11317;51.072;17.036;2022-10-19T04:26:05;12.10;99.90
22299;DHT22;11317;51.072;17.036;2022-10-19T04:31:00;11.80;99.90
22299;DHT22;11317;51.072;17.036;2022-10-19T04:36:03;11.80;99.90
22299;DHT22;11317;51.072;17.036;2022-10-19T04:43:21;11.80;99.90
22299;DHT22;11317;51.072;17.036;2022-10-19T04:45:47;11.60;99.90
22299;DHT22;11317;51.072;17.036;2022-10-19T04:50:38;12.50;99.90
22299;DHT22;11317;51.072;17.036;2022-10-19T04:53:04;11.70;99.90
22299;DHT22;11317;51.072;17.036;2022-10-19T04:55:30;11.90;99.90
22299;DHT22;11317;51.072;17.036;2022-10-19T04:57:55;11.70;99.90
22299;DHT22;11317;51.072;17.036;2022-10-19T05:00:21;11.70;99.90
22299;DHT22;11317;51.072;17.036;2022-10-19T05:02:47;12.30;99.90
22299;DHT22;11317;51.072;17.036;2022-10-19T05:05:13;11.40;99.90
22299;DHT22;11317;51.072;17.036;2022-10-19T05:07:39;11.60;99.90
22299;DHT22;11317;51.072;17.036;2022-10-19T05:10:06;11.40;99.90
22299;DHT22;11317;51.072;17.036;2022-10-19T05:12:34;11.60;99.90
22299;DHT22;11317;51.072;17.036;2022-10-19T05:15:00;11.40;99.90
22299;DHT22;11317;51.072;17.036;2022-10-19T05:17:29;11.40;99.90
22299;DHT22;11317;51.072;17.036;2022-10-19T05:19:55;11.00;99.90
22299;DHT22;11317;51.072;17.036;2022-10-19T05:27:13;11.10;99.90
22299;DHT22;11317;51.072;17.036;2022-10-19T05:32:04;11.40;99.90
22299;DHT22;11317;51.072;17.036;2022-10-19T05:36:56;11.50;99.90
22299;DHT22;11317;51.072;17.036;2022-10-19T05:39:22;11.70;99.90
22299;DHT22;11317;51.072;17.036;2022-10-19T05:41:48;10.90;99.90
22299;DHT22;11317;51.072;17.036;2022-10-19T05:44:18;11.40;99.90
22299;DHT22;11317;51.072;17.036;2022-10-19T05:49:11;11.10;99.90
22299;DHT22;11317;51.072;17.036;2022-10-19T05:51:38;11.40;99.90
22299;DHT22;11317;51.072;17.036;2022-10-19T05:56:31;11.20;99.90
22299;DHT22;11317;51.072;17.036;2022-10-19T05:58:58;11.40;99.90
22299;DHT22;11317;51.072;17.036;2022-10-19T06:03:52;11.60;99.90
22299;DHT22;11317;51.072;17.036;2022-10-19T06:11:21;11.60;99.90
22299;DHT22;11317;51.072;17.036;2022-10-19T06:13:48;11.50;99.90
22299;DHT22;11317;51.072;17.036;2022-10-19T06:16:16;11.40;90.30
22299;DHT22;11317;51.072;17.036;2022-10-19T06:18:43;11.90;94.80
22299;DHT22;11317;51.072;17.036;2022-10-19T06:21:17;11.80;88.00
22299;DHT22;11317;51.072;17.036;2022-10-19T06:26:13;11.80;88.70
22299;DHT22;11317;51.072;17.036;2022-10-19T06:28:40;11.80;75.10
22299;DHT22;11317;51.072;17.036;2022-10-19T06:33:32;11.90;80.30
22299;DHT22;11317;51.072;17.036;2022-10-19T06:36:28;11.70;81.00
22299;DHT22;11317;51.072;17.036;2022-10-19T06:38:54;12.00;77.60
22299;DHT22;11317;51.072;17.036;2022-10-19T06:43:51;12.00;83.40
22299;DHT22;11317;51.072;17.036;2022-10-19T06:46:19;11.70;93.20
22299;DHT22;11317;51.072;17.036;2022-10-19T06:48:54;12.30;81.30
22299;DHT22;11317;51.072;17.036;2022-10-19T06:51:20;11.80;89.90
22299;DHT22;11317;51.072;17.036;2022-10-19T06:58:38;11.80;63.50
22299;DHT22;11317;51.072;17.036;2022-10-19T07:01:05;12.20;45.30
22299;DHT22;11317;51.072;17.036;2022-10-19T07:03:36;14.20;47.10
22299;DHT22;11317;51.072;17.036;2022-10-19T07:06:04;12.30;47.10
22299;DHT22;11317;51.072;17.036;2022-10-19T07:08:31;12.40;39.40
22299;DHT22;11317;51.072;17.036;2022-10-19T07:11:03;12.60;12.80
22299;DHT22;11317;51.072;17.036;2022-10-19T07:13:29;12.10;18.50
22299;DHT22;11317;51.072;17.036;2022-10-19T07:15:57;12.50;10.50
22299;DHT22;11317;51.072;17.036;2022-10-19T07:18:23;12.90;2.90
22299;DHT22;11317;51.072;17.036;2022-10-19T07:21:01;12.80;1.00
22299;DHT22;11317;51.072;17.036;2022-10-19T07:23:28;12.50;1.00
22299;DHT22;11317;51.072;17.036;2022-10-19T07:25:55;12.80;1.00
22299;DHT22;11317;51.072;17.036;2022-10-19T07:33:17;13.50;1.00
22299;DHT22;11317;51.072;17.036;2022-10-19T07:35:43;14.40;1.00
22299;DHT22;11317;51.072;17.036;2022-10-19T07:38:09;13.30;1.00
22299;DHT22;11317;51.072;17.036;2022-10-19T07:40:35;13.30;1.00
22299;DHT22;11317;51.072;17.036;2022-10-19T07:43:01;13.50;1.00
22299;DHT22;11317;51.072;17.036;2022-10-19T07:47:53;13.30;1.00
22299;DHT22;11317;51.072;17.036;2022-10-19T07:50:18;13.30;1.00
22299;DHT22;11317;51.072;17.036;2022-10-19T07:52:44;13.30;1.00
22299;DHT22;11317;51.072;17.036;2022-10-19T07:55:09;13.70;1.00
22299;DHT22;11317;51.072;17.036;2022-10-19T07:57:35;14.70;1.00
22299;DHT22;11317;51.072;17.036;2022-10-19T08:02:27;13.50;1.00
22299;DHT22;11317;51.072;17.036;2022-10-19T08:07:18;13.60;99.90
22299;DHT22;11317;51.072;17.036;2022-10-19T08:09:44;13.70;1.00
22299;DHT22;11317;51.072;17.036;2022-10-19T08:17:02;15.10;99.90
22299;DHT22;11317;51.072;17.036;2022-10-19T08:19:27;14.40;1.00
22299;DHT22;11317;51.072;17.036;2022-10-19T08:24:20;14.70;1.00
22299;DHT22;11317;51.072;17.036;2022-10-19T08:29:17;13.90;1.00
22299;DHT22;11317;51.072;17.036;2022-10-19T08:31:44;13.70;65.30
22299;DHT22;11317;51.072;17.036;2022-10-19T08:34:11;13.20;49.00
22299;DHT22;11317;51.072;17.036;2022-10-19T08:39:04;13.50;13.40
22299;DHT22;11317;51.072;17.036;2022-10-19T08:42:16;14.40;99.90
22299;DHT22;11317;51.072;17.036;2022-10-19T08:44:26;14.30;1.00
22299;DHT22;11317;51.072;17.036;2022-10-19T08:49:51;14.00;1.00
22299;DHT22;11317;51.072;17.036;2022-10-19T08:52:20;14.50;99.90
22299;DHT22;11317;51.072;17.036;2022-10-19T08:55:00;14.90;1.00
22299;DHT22;11317;51.072;17.036;2022-10-19T09:00:44;15.20;99.90
22299;DHT22;11317;51.072;17.036;2022-10-19T09:03:18;15.00;1.00
22299;DHT22;11317;51.072;17.036;2022-10-19T09:08:50;15.40;99.90
22299;DHT22;11317;51.072;17.036;2022-10-19T09:11:23;15.70;99.90
22299;DHT22;11317;51.072;17.036;2022-10-19T09:16:55;16.30;99.90
22299;DHT22;11317;51.072;17.036;2022-10-19T09:19:26;16.50;99.90
22299;DHT22;11317;51.072;17.036;2022-10-19T09:27:04;16.70;95.80
22299;DHT22;11317;51.072;17.036;2022-10-19T09:29:44;16.50;1.00
22299;DHT22;11317;51.072;17.036;2022-10-19T09:32:16;16.10;1.00
22299;DHT22;11317;51.072;17.036;2022-10-19T09:34:53;16.30;99.90
22299;DHT22;11317;51.072;17.036;2022-10-19T09:37:21;16.10;1.00
22299;DHT22;11317;51.072;17.036;2022-10-19T09:39:47;15.90;1.00
22299;DHT22;11317;51.072;17.036;2022-10-19T09:42:30;16.70;1.00
22299;DHT22;11317;51.072;17.036;2022-10-19T09:45:15;16.90;1.00
22299;DHT22;11317;51.072;17.036;2022-10-19T09:47:45;16.40;1.00
22299;DHT22;11317;51.072;17.036;2022-10-19T09:52:44;16.90;1.00
22299;DHT22;11317;51.072;17.036;2022-10-19T09:57:47;17.00;1.00
22299;DHT22;11317;51.072;17.036;2022-10-19T10:00:22;16.70;95.50
22299;DHT22;11317;51.072;17.036;2022-10-19T10:02:51;16.30;99.90
22299;DHT22;11317;51.072;17.036;2022-10-19T10:05:18;16.60;1.00
22299;DHT22;11317;51.072;17.036;2022-10-19T10:10:29;15.90;1.00
22299;DHT22;11317;51.072;17.036;2022-10-19T10:12:58;15.50;1.00
22299;DHT22;11317;51.072;17.036;2022-10-19T10:15:26;15.40;99.90
22299;DHT22;11317;51.072;17.036;2022-10-19T10:17:52;15.10;1.00
22299;DHT22;11317;51.072;17.036;2022-10-19T10:20:26;14.70;1.00
22299;DHT22;11317;51.072;17.036;2022-10-19T10:23:01;14.60;99.90
22299;DHT22;11317;51.072;17.036;2022-10-19T10:25:36;14.50;1.00
22299;DHT22;11317;51.072;17.036;2022-10-19T10:28:22;14.50;1.00
22299;DHT22;11317;51.072;17.036;2022-10-19T10:30:53;15.00;99.90
22299;DHT22;11317;51.072;17.036;2022-10-19T10:33:23;15.10;1.00
22299;DHT22;11317;51.072;17.036;2022-10-19T10:35:53;15.30;99.90
22299;DHT22;11317;51.072;17.036;2022-10-19T10:38:26;15.70;1.00
22299;DHT22;11317;51.072;17.036;2022-10-19T10:41:24;15.70;1.00
22299;DHT22;11317;51.072;17.036;2022-10-19T10:44:06;15.40;99.90
22299;DHT22;11317;51.072;17.036;2022-10-19T10:46:42;15.80;99.90
22299;DHT22;11317;51.072;17.036;2022-10-19T10:49:20;16.00;19.60
22299;DHT22;11317;51.072;17.036;2022-10-19T10:51:50;15.90;99.90
22299;DHT22;11317;51.072;17.036;2022-10-19T10:54:24;15.50;99.90
22299;DHT22;11317;51.072;17.036;2022-10-19T10:57:12;15.60;1.00
22299;DHT22;11317;51.072;17.036;2022-10-19T11:05:45;16.10;1.00
22299;DHT22;11317;51.072;17.036;2022-10-19T11:14:52;16.00;99.90
22299;DHT22;11317;51.072;17.036;2022-10-19T11:16:53;16.50;99.90
22299;DHT22;11317;51.072;17.036;2022-10-19T11:19:35;16.30;99.90
22299;DHT22;11317;51.072;17.036;2022-10-19T11:30:23;15.40;1.00
22299;DHT22;11317;51.072;17.036;2022-10-19T11:33:15;15.40;1.00
22299;DHT22;11317;51.072;17.036;2022-10-19T11:35:57;15.40;1.00
22299;DHT22;11317;51.072;17.036;2022-10-19T11:38:28;15.20;1.00
22299;DHT22;11317;51.072;17.036;2022-10-19T11:41:08;15.20;1.00
22299;DHT22;11317;51.072;17.036;2022-10-19T11:46:37;15.50;99.90
22299;DHT22;11317;51.072;17.036;2022-10-19T11:57:27;15.30;1.00
22299;DHT22;11317;51.072;17.036;2022-10-19T12:08:36;14.20;1.00
22299;DHT22;11317;51.072;17.036;2022-10-19T12:11:37;13.80;91.50
22299;DHT22;11317;51.072;17.036;2022-10-19T12:14:12;14.30;95.00
22299;DHT22;11317;51.072;17.036;2022-10-19T12:16:52;14.30;1.00
22299;DHT22;11317;51.072;17.036;2022-10-19T12:19:35;14.20;47.50
22299;DHT22;11317;51.072;17.036;2022-10-19T12:22:04;14.80;57.80
22299;DHT22;11317;51.072;17.036;2022-10-19T12:24:33;14.70;1.00
22299;DHT22;11317;51.072;17.036;2022-10-19T12:27:00;14.50;1.00
22299;DHT22;11317;51.072;17.036;2022-10-19T12:29:29;14.60;1.00
22299;DHT22;11317;51.072;17.036;2022-10-19T12:31:56;14.10;34.80
22299;DHT22;11317;51.072;17.036;2022-10-19T12:42:17;14.20;1.00
22299;DHT22;11317;51.072;17.036;2022-10-19T12:45:17;13.90;99.90
22299;DHT22;11317;51.072;17.036;2022-10-19T12:53:24;14.20;99.90
22299;DHT22;11317;51.072;17.036;2022-10-19T12:56:19;14.20;1.00
22299;DHT22;11317;51.072;17.036;2022-10-19T12:58:58;14.30;99.90
22299;DHT22;11317;51.072;17.036;2022-10-19T13:01:41;14.30;1.00
22299;DHT22;11317;51.072;17.036;2022-10-19T13:06:37;14.40;99.90
22299;DHT22;11317;51.072;17.036;2022-10-19T13:09:06;14.60;99.90
22299;DHT22;11317;51.072;17.036;2022-10-19T13:11:33;14.40;99.90
22299;DHT22;11317;51.072;17.036;2022-10-19T13:21:46;14.10;99.90
22299;DHT22;11317;51.072;17.036;2022-10-19T13:24:38;14.40;1.00
22299;DHT22;11317;51.072;17.036;2022-10-19T13:35:33;13.90;1.00
22299;DHT22;11317;51.072;17.036;2022-10-19T13:38:18;14.00;1.00
22299;DHT22;11317;51.072;17.036;2022-10-19T13:46:13;13.30;1.00
22299;DHT22;11317;51.072;17.036;2022-10-19T13:52:18;13.40;75.00
22299;DHT22;11317;51.072;17.036;2022-10-19T14:11:20;13.70;1.00
22299;DHT22;11317;51.072;17.036;2022-10-19T14:19:43;13.40;58.30
22299;DHT22;11317;51.072;17.036;2022-10-19T14:22:29;13.50;1.00
22299;DHT22;11317;51.072;17.036;2022-10-19T14:27:42;13.20;99.90
22299;DHT22;11317;51.072;17.036;2022-10-19T14:32:45;13.00;1.00
22299;DHT22;11317;51.072;17.036;2022-10-19T14:35:21;13.40;1.00
22299;DHT22;11317;51.072;17.036;2022-10-19T14:37:50;12.60;1.00
22299;DHT22;11317;51.072;17.036;2022-10-19T14:40:24;13.30;99.90
22299;DHT22;11317;51.072;17.036;2022-10-19T14:42:51;12.80;1.00
22299;DHT22;11317;51.072;17.036;2022-10-19T14:47:59;13.20;1.00
22299;DHT22;11317;51.072;17.036;2022-10-19T14:50:33;13.70;1.00
22299;DHT22;11317;51.072;17.036;2022-10-19T14:53:18;13.40;1.00
22299;DHT22;11317;51.072;17.036;2022-10-19T14:55:46;14.50;1.00
22299;DHT22;11317;51.072;17.036;2022-10-19T14:58:17;13.50;1.00
22299;DHT22;11317;51.072;17.036;2022-10-19T15:00:46;13.50;1.00
22299;DHT22;11317;51.072;17.036;2022-10-19T15:03:27;13.40;1.00
22299;DHT22;11317;51.072;17.036;2022-10-19T15:06:02;13.30;1.00
22299;DHT22;11317;51.072;17.036;2022-10-19T15:08:36;13.30;99.90
22299;DHT22;11317;51.072;17.036;2022-10-19T15:11:07;13.10;1.00
22299;DHT22;11317;51.072;17.036;2022-10-19T15:13:43;13.20;1.00
22299;DHT22;11317;51.072;17.036;2022-10-19T15:18:53;13.00;1.00
22299;DHT22;11317;51.072;17.036;2022-10-19T15:21:19;13.10;1.00
22299;DHT22;11317;51.072;17.036;2022-10-19T15:23:50;12.90;99.90
22299;DHT22;11317;51.072;17.036;2022-10-19T15:26:34;12.90;99.90
22299;DHT22;11317;51.072;17.036;2022-10-19T15:29:07;13.00;99.90
22299;DHT22;11317;51.072;17.036;2022-10-19T15:31:33;13.00;99.90
22299;DHT22;11317;51.072;17.036;2022-10-19T15:34:00;12.40;1.00
22299;DHT22;11317;51.072;17.036;2022-10-19T15:36:28;12.70;1.00
22299;DHT22;11317;51.072;17.036;2022-10-19T15:41:31;12.80;99.90
22299;DHT22;11317;51.072;17.036;2022-10-19T15:44:02;12.30;99.90
22299;DHT22;11317;51.072;17.036;2022-10-19T15:47:12;12.70;1.00
22299;DHT22;11317;51.072;17.036;2022-10-19T15:49:51;12.60;1.00
22299;DHT22;11317;51.072;17.036;2022-10-19T15:52:22;12.70;1.00
22299;DHT22;11317;51.072;17.036;2022-10-19T15:54:50;12.60;1.00
22299;DHT22;11317;51.072;17.036;2022-10-19T15:57:36;12.70;1.00
22299;DHT22;11317;51.072;17.036;2022-10-19T16:00:14;12.60;1.00
22299;DHT22;11317;51.072;17.036;2022-10-19T16:02:40;12.60;1.00
22299;DHT22;11317;51.072;17.036;2022-10-19T16:05:07;12.50;1.00
22299;DHT22;11317;51.072;17.036;2022-10-19T16:07:38;12.80;99.90
22299;DHT22;11317;51.072;17.036;2022-10-19T16:10:13;12.40;1.00
22299;DHT22;11317;51.072;17.036;2022-10-19T16:15:21;12.50;99.90
22299;DHT22;11317;51.072;17.036;2022-10-19T16:17:59;12.50;99.90
22299;DHT22;11317;51.072;17.036;2022-10-19T16:20:27;12.20;99.90
22299;DHT22;11317;51.072;17.036;2022-10-19T16:22:53;12.50;99.90
22299;DHT22;11317;51.072;17.036;2022-10-19T16:25:19;12.40;20.20
22299;DHT22;11317;51.072;17.036;2022-10-19T16:27:45;12.50;1.00
22299;DHT22;11317;51.072;17.036;2022-10-19T16:32:37;12.40;99.90
22299;DHT22;11317;51.072;17.036;2022-10-19T16:35:05;12.30;1.00
22299;DHT22;11317;51.072;17.036;2022-10-19T16:39:59;12.30;1.00
22299;DHT22;11317;51.072;17.036;2022-10-19T16:42:24;12.90;99.90
22299;DHT22;11317;51.072;17.036;2022-10-19T16:44:50;11.90;99.90
22299;DHT22;11317;51.072;17.036;2022-10-19T16:47:17;12.30;1.00
22299;DHT22;11317;51.072;17.036;2022-10-19T16:49:44;12.40;1.00
22299;DHT22;11317;51.072;17.036;2022-10-19T16:52:14;12.70;1.00
22299;DHT22;11317;51.072;17.036;2022-10-19T16:54:40;12.80;1.00
22299;DHT22;11317;51.072;17.036;2022-10-19T16:57:05;11.70;99.90
22299;DHT22;11317;51.072;17.036;2022-10-19T16:59:31;12.40;15.30
22299;DHT22;11317;51.072;17.036;2022-10-19T17:01:57;12.20;1.00
22299;DHT22;11317;51.072;17.036;2022-10-19T17:06:50;12.80;99.90
22299;DHT22;11317;51.072;17.036;2022-10-19T17:09:16;12.00;99.90
22299;DHT22;11317;51.072;17.036;2022-10-19T17:11:42;13.40;1.00
22299;DHT22;11317;51.072;17.036;2022-10-19T17:14:11;12.50;1.00
22299;DHT22;11317;51.072;17.036;2022-10-19T17:16:38;12.50;1.00
22299;DHT22;11317;51.072;17.036;2022-10-19T17:19:06;12.40;1.00
22299;DHT22;11317;51.072;17.036;2022-10-19T17:21:34;12.30;99.90
22299;DHT22;11317;51.072;17.036;2022-10-19T17:24:03;12.20;1.00
22299;DHT22;11317;51.072;17.036;2022-10-19T17:26:40;12.30;1.00
22299;DHT22;11317;51.072;17.036;2022-10-19T17:29:11;12.10;1.00
22299;DHT22;11317;51.072;17.036;2022-10-19T17:31:38;12.30;1.00
22299;DHT22;11317;51.072;17.036;2022-10-19T17:34:05;12.70;1.00
22299;DHT22;11317;51.072;17.036;2022-10-19T17:36:36;12.20;1.00
22299;DHT22;11317;51.072;17.036;2022-10-19T17:39:05;12.30;1.00
22299;DHT22;11317;51.072;17.036;2022-10-19T17:41:32;12.40;1.00
22299;DHT22;11317;51.072;17.036;2022-10-19T17:43:58;12.80;1.00
22299;DHT22;11317;51.072;17.036;2022-10-19T17:46:29;12.00;1.00
22299;DHT22;11317;51.072;17.036;2022-10-19T17:48:56;11.90;1.00
22299;DHT22;11317;51.072;17.036;2022-10-19T17:51:24;12.20;99.90
22299;DHT22;11317;51.072;17.036;2022-10-19T17:54:04;12.00;99.90
22299;DHT22;11317;51.072;17.036;2022-10-19T17:56:33;12.80;87.10
22299;DHT22;11317;51.072;17.036;2022-10-19T18:01:28;11.90;1.00
22299;DHT22;11317;51.072;17.036;2022-10-19T18:06:22;11.70;99.90
22299;DHT22;11317;51.072;17.036;2022-10-19T18:08:50;11.70;1.00
22299;DHT22;11317;51.072;17.036;2022-10-19T18:11:25;11.60;1.00
22299;DHT22;11317;51.072;17.036;2022-10-19T18:13:55;11.60;1.00
22299;DHT22;11317;51.072;17.036;2022-10-19T18:16:26;11.30;1.00
22299;DHT22;11317;51.072;17.036;2022-10-19T18:18:55;11.10;1.00
22299;DHT22;11317;51.072;17.036;2022-10-19T18:21:24;11.00;1.00
22299;DHT22;11317;51.072;17.036;2022-10-19T18:23:51;11.20;1.00
22299;DHT22;11317;51.072;17.036;2022-10-19T18:26:21;10.90;1.00
22299;DHT22;11317;51.072;17.036;2022-10-19T18:28:48;10.70;1.00
22299;DHT22;11317;51.072;17.036;2022-10-19T18:31:16;10.40;1.00
22299;DHT22;11317;51.072;17.036;2022-10-19T18:41:03;10.50;5.50
22299;DHT22;11317;51.072;17.036;2022-10-19T18:43:29;10.40;30.50
22299;DHT22;11317;51.072;17.036;2022-10-19T18:45:57;10.30;31.00
22299;DHT22;11317;51.072;17.036;2022-10-19T18:48:25;10.20;46.00
22299;DHT22;11317;51.072;17.036;2022-10-19T18:50:52;9.70;79.20
22299;DHT22;11317;51.072;17.036;2022-10-19T19:00:37;9.90;93.10
22299;DHT22;11317;51.072;17.036;2022-10-19T19:03:05;9.60;99.90
22299;DHT22;11317;51.072;17.036;2022-10-19T19:05:31;9.60;99.90
22299;DHT22;11317;51.072;17.036;2022-10-19T19:10:23;9.80;99.90
22299;DHT22;11317;51.072;17.036;2022-10-19T19:12:50;9.70;99.90
22299;DHT22;11317;51.072;17.036;2022-10-19T19:20:09;9.70;99.90
22299;DHT22;11317;51.072;17.036;2022-10-19T19:22:35;9.20;99.90
22299;DHT22;11317;51.072;17.036;2022-10-19T19:27:27;9.30;99.90
22299;DHT22;11317;51.072;17.036;2022-10-19T19:29:54;9.30;99.90
22299;DHT22;11317;51.072;17.036;2022-10-19T19:37:13;9.10;99.90
22299;DHT22;11317;51.072;17.036;2022-10-19T19:42:05;8.60;99.90
22299;DHT22;11317;51.072;17.036;2022-10-19T19:46:58;9.30;99.90
22299;DHT22;11317;51.072;17.036;2022-10-19T19:49:24;9.00;99.90
22299;DHT22;11317;51.072;17.036;2022-10-19T19:51:52;9.00;99.90
22299;DHT22;11317;51.072;17.036;2022-10-19T19:54:21;8.90;99.90
22299;DHT22;11317;51.072;17.036;2022-10-19T19:56:51;8.60;99.90
22299;DHT22;11317;51.072;17.036;2022-10-19T19:59:18;8.80;99.90
22299;DHT22;11317;51.072;17.036;2022-10-19T20:01:46;8.30;99.90
22299;DHT22;11317;51.072;17.036;2022-10-19T20:04:11;8.60;99.90
22299;DHT22;11317;51.072;17.036;2022-10-19T20:06:38;8.40;99.90
22299;DHT22;11317;51.072;17.036;2022-10-19T20:09:05;8.70;99.90
22299;DHT22;11317;51.072;17.036;2022-10-19T20:11:31;8.90;99.90
22299;DHT22;11317;51.072;17.036;2022-10-19T20:16:26;8.90;99.90
22299;DHT22;11317;51.072;17.036;2022-10-19T20:18:56;8.40;99.90
22299;DHT22;11317;51.072;17.036;2022-10-19T20:21:23;8.00;99.90
22299;DHT22;11317;51.072;17.036;2022-10-19T20:28:42;8.50;99.90
22299;DHT22;11317;51.072;17.036;2022-10-19T20:31:09;8.40;99.90
22299;DHT22;11317;51.072;17.036;2022-10-19T20:33:37;8.20;99.90
22299;DHT22;11317;51.072;17.036;2022-10-19T20:36:04;8.50;99.90
22299;DHT22;11317;51.072;17.036;2022-10-19T20:38:31;8.50;99.90
22299;DHT22;11317;51.072;17.036;2022-10-19T20:40:57;8.50;99.90
22299;DHT22;11317;51.072;17.036;2022-10-19T20:43:23;8.50;99.90
22299;DHT22;11317;51.072;17.036;2022-10-19T20:45:48;8.00;99.90
22299;DHT22;11317;51.072;17.036;2022-10-19T21:00:25;8.30;99.90
22299;DHT22;11317;51.072;17.036;2022-10-19T21:05:18;7.70;99.90
22299;DHT22;11317;51.072;17.036;2022-10-19T21:22:19;7.70;99.90
22299;DHT22;11317;51.072;17.036;2022-10-19T21:24:45;7.90;99.90
22299;DHT22;11317;51.072;17.036;2022-10-19T21:34:30;7.40;99.90
22299;DHT22;11317;51.072;17.036;2022-10-19T21:41:49;8.00;99.90
22299;DHT22;11317;51.072;17.036;2022-10-19T21:44:16;8.00;99.90
22299;DHT22;11317;51.072;17.036;2022-10-19T21:49:12;8.20;99.90
22299;DHT22;11317;51.072;17.036;2022-10-19T21:51:50;8.00;99.90
22299;DHT22;11317;51.072;17.036;2022-10-19T21:54:18;8.50;99.90
22299;DHT22;11317;51.072;17.036;2022-10-19T21:59:11;9.00;99.90
22299;DHT22;11317;51.072;17.036;2022-10-19T22:01:37;8.50;99.90
22299;DHT22;11317;51.072;17.036;2022-10-19T22:04:05;7.80;99.90
22299;DHT22;11317;51.072;17.036;2022-10-19T22:06:33;8.00;99.90
22299;DHT22;11317;51.072;17.036;2022-10-19T22:09:00;8.30;99.90
22299;DHT22;11317;51.072;17.036;2022-10-19T22:11:26;8.10;99.90
22299;DHT22;11317;51.072;17.036;2022-10-19T22:13:56;8.30;99.90
22299;DHT22;11317;51.072;17.036;2022-10-19T22:16:23;8.20;99.90